createdAt,value
2019-02-15T00:01:24.046Z,35.40
2019-02-15T00:03:50.016Z,35.40
2019-02-15T00:06:16.232Z,35.40
2019-02-15T00:08:43.526Z,35.40
2019-02-15T00:11:09.881Z,35.50
2019-02-15T00:13:35.818Z,35.30
2019-02-15T00:16:01.789Z,35.50
2019-02-15T00:18:35.814Z,35.40
2019-02-15T00:21:03.985Z,35.40
2019-02-15T00:23:30.021Z,35.30
2019-02-15T00:25:56.091Z,35.40
2019-02-15T00:28:27.525Z,35.40
2019-02-15T00:30:53.561Z,35.40
2019-02-15T00:33:19.517Z,35.40
2019-02-15T00:35:45.472Z,35.30
2019-02-15T00:38:11.429Z,35.30
2019-02-15T00:40:37.376Z,35.30
2019-02-15T00:43:03.399Z,35.30
2019-02-15T00:45:34.029Z,35.30
2019-02-15T00:48:08.201Z,35.30
2019-02-15T00:50:38.812Z,35.30
2019-02-15T00:53:21.774Z,35.30
2019-02-15T00:55:55.568Z,35.30
2019-02-15T00:58:35.539Z,35.20
2019-02-15T01:01:03.756Z,35.90
2019-02-15T01:03:34.606Z,35.30
2019-02-15T01:06:04.917Z,35.30
2019-02-15T01:08:32.809Z,35.30
2019-02-15T01:11:03.615Z,35.30
2019-02-15T01:13:31.366Z,35.30
2019-02-15T01:15:57.427Z,35.30
2019-02-15T01:18:26.373Z,35.20
2019-02-15T01:20:52.413Z,35.20
2019-02-15T01:23:18.352Z,35.30
2019-02-15T01:25:46.211Z,35.20
2019-02-15T01:28:14.157Z,35.20
2019-02-15T01:30:51.040Z,35.20
2019-02-15T01:33:21.673Z,35.30
2019-02-15T01:36:01.811Z,35.30
2019-02-15T01:38:33.491Z,35.10
2019-02-15T01:41:01.454Z,35.10
2019-02-15T01:43:40.148Z,35.10
2019-02-15T01:46:07.795Z,35.10
2019-02-15T01:48:33.736Z,35.20
2019-02-15T01:50:59.700Z,35.20
2019-02-15T01:53:25.649Z,35.10
2019-02-15T01:55:51.617Z,35.20
2019-02-15T01:58:26.912Z,35.10
2019-02-15T02:00:52.968Z,35.10
2019-02-15T02:03:18.915Z,35.20
2019-02-15T02:05:44.904Z,35.10
2019-02-15T02:08:21.603Z,35.20
2019-02-15T02:10:47.571Z,35.30
2019-02-15T02:13:13.537Z,35.80
2019-02-15T02:15:39.473Z,35.20
2019-02-15T02:18:05.437Z,35.30
2019-02-15T02:20:31.416Z,35.20
2019-02-15T02:22:57.477Z,35.10
2019-02-15T02:25:23.422Z,35.20
2019-02-15T02:27:49.477Z,35.20
2019-02-15T02:30:15.416Z,35.20
2019-02-15T02:32:41.368Z,35.20
2019-02-15T02:35:07.301Z,35.20
2019-02-15T02:37:33.243Z,35.20
2019-02-15T02:39:59.201Z,35.20
2019-02-15T02:42:25.145Z,35.20
2019-02-15T02:44:51.117Z,35.30
2019-02-15T02:47:17.085Z,35.20
2019-02-15T02:49:43.049Z,35.20
2019-02-15T02:52:08.986Z,35.20
2019-02-15T02:54:34.972Z,35.20
2019-02-15T02:57:01.013Z,35.20
2019-02-15T02:59:26.948Z,35.20
2019-02-15T03:01:52.888Z,35.20
2019-02-15T03:04:18.851Z,35.20
2019-02-15T03:06:44.900Z,35.10
2019-02-15T03:09:10.836Z,35.20
2019-02-15T03:11:36.786Z,35.20
2019-02-15T03:14:11.131Z,35.10
2019-02-15T03:16:30.589Z,35.10
2019-02-15T03:18:56.648Z,35.10
2019-02-15T03:21:22.713Z,35.20
2019-02-15T03:23:48.649Z,35.10
2019-02-15T03:26:14.579Z,35.20
2019-02-15T03:28:40.539Z,35.10
2019-02-15T03:31:06.499Z,35.80
2019-02-15T03:33:32.553Z,35.30
2019-02-15T03:36:00.508Z,35.20
2019-02-15T03:38:37.199Z,35.10
2019-02-15T03:41:04.850Z,35.20
2019-02-15T03:43:30.895Z,35.10
2019-02-15T03:45:56.832Z,35.00
2019-02-15T03:48:22.800Z,35.10
2019-02-15T03:50:48.825Z,35.10
2019-02-15T03:53:14.842Z,35.00
2019-02-15T03:55:40.901Z,35.10
2019-02-15T03:58:07.382Z,35.00
2019-02-15T04:00:33.342Z,35.00
2019-02-15T04:02:59.300Z,35.00
2019-02-15T04:05:25.340Z,35.00
2019-02-15T04:07:51.383Z,35.00
2019-02-15T04:10:17.346Z,35.70
2019-02-15T04:12:43.339Z,34.90
2019-02-15T04:15:09.276Z,35.00
2019-02-15T04:17:35.221Z,35.10
2019-02-15T04:20:01.263Z,35.00
2019-02-15T04:22:27.216Z,35.00
2019-02-15T04:24:53.156Z,35.00
2019-02-15T04:27:19.146Z,35.10
2019-02-15T04:29:45.163Z,35.00
2019-02-15T04:32:11.122Z,35.00
2019-02-15T04:34:37.075Z,35.00
2019-02-15T04:37:03.014Z,35.00
2019-02-15T04:39:28.959Z,35.00
2019-02-15T04:41:54.910Z,35.60
2019-02-15T04:44:20.856Z,35.00
2019-02-15T04:46:46.827Z,34.90
2019-02-15T04:49:12.892Z,34.90
2019-02-15T04:51:38.944Z,34.90
2019-02-15T04:54:04.877Z,35.50
2019-02-15T04:56:30.856Z,34.90
2019-02-15T04:58:56.819Z,35.10
2019-02-15T05:01:22.790Z,34.90
2019-02-15T05:03:48.783Z,35.40
2019-02-15T05:06:14.906Z,34.90
2019-02-15T05:08:40.954Z,34.80
2019-02-15T05:11:07.075Z,34.80
2019-02-15T05:13:33.607Z,34.90
2019-02-15T05:16:00.037Z,35.00
2019-02-15T05:18:26.071Z,34.90
2019-02-15T05:20:52.149Z,34.90
2019-02-15T05:23:18.108Z,34.90
2019-02-15T05:25:44.164Z,34.90
2019-02-15T05:28:10.093Z,35.60
2019-02-15T05:30:38.077Z,34.90
2019-02-15T05:33:04.099Z,35.00
2019-02-15T05:35:30.051Z,34.90
2019-02-15T05:37:56.929Z,35.20
2019-02-15T05:40:22.967Z,35.00
2019-02-15T05:42:48.941Z,35.00
2019-02-15T05:45:15.008Z,35.10
2019-02-15T05:47:41.041Z,35.10
2019-02-15T05:50:07.123Z,35.10
2019-02-15T05:52:33.166Z,35.10
2019-02-15T05:54:59.209Z,35.20
2019-02-15T05:57:25.185Z,35.30
2019-02-15T05:59:51.283Z,35.30
2019-02-15T06:02:17.338Z,35.30
2019-02-15T06:04:43.291Z,35.30
2019-02-15T06:07:09.229Z,35.30
2019-02-15T06:09:35.204Z,35.30
2019-02-15T06:12:01.155Z,35.70
2019-02-15T06:14:27.105Z,35.60
2019-02-15T06:16:53.050Z,35.40
2019-02-15T06:19:19.009Z,35.30
2019-02-15T06:21:44.953Z,35.10
2019-02-15T06:24:10.937Z,34.90
2019-02-15T06:26:36.900Z,34.90
2019-02-15T06:29:02.953Z,34.80
2019-02-15T06:31:28.896Z,34.90
2019-02-15T06:33:54.944Z,34.80
2019-02-15T06:36:20.874Z,34.70
2019-02-15T06:38:46.837Z,34.60
2019-02-15T06:41:12.779Z,34.40
2019-02-15T06:43:38.725Z,34.20
2019-02-15T06:46:04.681Z,34.00
2019-02-15T06:48:30.900Z,33.90
2019-02-15T06:50:56.948Z,33.90
2019-02-15T06:53:22.946Z,33.70
2019-02-15T06:55:48.934Z,33.70
2019-02-15T06:58:15.109Z,33.50
2019-02-15T07:00:45.973Z,33.50
2019-02-15T07:03:19.758Z,33.40
2019-02-15T07:05:45.734Z,33.40
2019-02-15T07:08:11.751Z,33.20
2019-02-15T07:10:37.783Z,33.30
2019-02-15T07:13:03.946Z,33.10
2019-02-15T07:15:33.652Z,33.10
2019-02-15T07:17:58.758Z,33.20
2019-02-15T07:20:24.744Z,33.30
2019-02-15T07:22:50.722Z,33.50
2019-02-15T07:25:16.670Z,33.50
2019-02-15T07:27:42.625Z,33.40
2019-02-15T07:30:08.560Z,33.50
2019-02-15T07:32:34.543Z,33.30
2019-02-15T07:35:00.519Z,33.30
2019-02-15T07:37:26.582Z,33.30
2019-02-15T07:39:52.621Z,33.20
2019-02-15T07:42:18.684Z,33.10
2019-02-15T07:44:44.628Z,33.20
2019-02-15T07:47:10.590Z,33.10
2019-02-15T07:49:36.638Z,33.00
2019-02-15T07:52:02.637Z,33.10
2019-02-15T07:54:28.662Z,33.00
2019-02-15T07:56:54.630Z,33.10
2019-02-15T07:59:20.695Z,33.00
2019-02-15T08:01:46.630Z,33.00
2019-02-15T08:04:12.604Z,32.90
2019-02-15T08:06:38.545Z,32.90
2019-02-15T08:09:04.521Z,33.00
2019-02-15T08:11:30.484Z,33.00
2019-02-15T08:13:56.472Z,33.60
2019-02-15T08:16:22.416Z,33.00
2019-02-15T08:18:48.368Z,32.80
2019-02-15T08:21:14.322Z,32.70
2019-02-15T08:23:41.434Z,32.80
2019-02-15T08:26:07.450Z,32.70
2019-02-15T08:28:33.517Z,32.70
2019-02-15T08:30:59.492Z,32.60
2019-02-15T08:33:25.556Z,32.50
2019-02-15T08:35:51.619Z,32.60
2019-02-15T08:38:17.567Z,32.50
2019-02-15T08:40:43.546Z,32.50
2019-02-15T08:43:09.479Z,32.50
2019-02-15T08:45:35.462Z,32.40
2019-02-15T08:48:01.409Z,32.50
2019-02-15T08:50:27.373Z,33.10
2019-02-15T08:52:55.121Z,32.50
2019-02-15T08:55:21.310Z,32.50
2019-02-15T08:57:47.248Z,32.70
2019-02-15T09:00:13.230Z,32.80
2019-02-15T09:02:39.185Z,32.90
2019-02-15T09:05:05.257Z,32.90
2019-02-15T09:07:31.318Z,33.00
2019-02-15T09:09:57.352Z,32.90
2019-02-15T09:12:23.321Z,32.90
2019-02-15T09:14:49.301Z,33.00
2019-02-15T09:17:15.232Z,32.80
2019-02-15T09:19:41.222Z,32.70
2019-02-15T09:22:07.175Z,32.70
2019-02-15T09:24:33.134Z,32.80
2019-02-15T09:27:01.003Z,32.70
2019-02-15T09:29:27.069Z,32.70
2019-02-15T09:31:53.029Z,32.60
2019-02-15T09:34:19.025Z,32.50
2019-02-15T09:36:45.076Z,32.60
2019-02-15T09:39:11.013Z,32.60
2019-02-15T09:41:36.988Z,32.50
2019-02-15T09:44:02.961Z,32.60
2019-02-15T09:46:29.023Z,32.50
2019-02-15T09:48:54.968Z,32.50
2019-02-15T09:51:20.914Z,32.40
2019-02-15T09:53:46.963Z,32.40
2019-02-15T09:56:13.825Z,32.40
2019-02-15T09:58:39.786Z,32.30
2019-02-15T10:01:05.762Z,32.50
2019-02-15T10:03:31.808Z,32.50
2019-02-15T10:05:57.775Z,33.10
2019-02-15T10:08:23.732Z,32.40
2019-02-15T10:10:49.700Z,32.50
2019-02-15T10:13:15.999Z,32.60
2019-02-15T10:15:42.493Z,32.70
2019-02-15T10:18:08.951Z,32.60
2019-02-15T10:20:34.915Z,32.60
2019-02-15T10:23:00.889Z,32.60
2019-02-15T10:25:26.826Z,32.70
2019-02-15T10:27:52.779Z,32.60
2019-02-15T10:30:18.733Z,32.70
2019-02-15T10:32:44.705Z,32.90
2019-02-15T10:35:10.639Z,32.90
2019-02-15T10:37:36.616Z,33.00
2019-02-15T10:40:02.677Z,33.00
2019-02-15T10:42:28.753Z,33.00
2019-02-15T10:44:54.701Z,33.00
2019-02-15T10:47:25.109Z,33.00
2019-02-15T10:49:48.527Z,33.00
2019-02-15T10:52:14.471Z,33.10
2019-02-15T10:54:40.433Z,33.00
2019-02-15T10:57:06.385Z,33.00
2019-02-15T10:59:32.437Z,33.00
2019-02-15T11:01:58.394Z,33.10
2019-02-15T11:04:24.368Z,33.10
2019-02-15T11:06:50.426Z,33.20
2019-02-15T11:09:16.477Z,33.20
2019-02-15T11:11:42.677Z,33.10
2019-02-15T11:14:08.661Z,33.70
2019-02-15T11:16:34.890Z,33.20
2019-02-15T11:19:00.964Z,33.20
2019-02-15T11:21:27.026Z,33.40
2019-02-15T11:23:53.184Z,33.30
2019-02-15T11:26:24.775Z,33.30
2019-02-15T11:28:47.112Z,33.30
2019-02-15T11:31:13.043Z,33.40
2019-02-15T11:33:39.017Z,33.50
2019-02-15T11:36:05.085Z,33.50
2019-02-15T11:38:31.032Z,33.60
2019-02-15T11:40:57.000Z,33.60
2019-02-15T11:43:23.009Z,33.60
2019-02-15T11:45:49.054Z,33.70
2019-02-15T11:48:14.983Z,33.70
2019-02-15T11:50:40.919Z,33.70
2019-02-15T11:53:06.874Z,33.70
2019-02-15T11:55:32.822Z,33.80
2019-02-15T11:57:58.784Z,33.90
2019-02-15T12:00:29.804Z,34.00
2019-02-15T12:02:55.764Z,34.00
2019-02-15T12:05:21.706Z,34.10
2019-02-15T12:07:47.653Z,34.10
2019-02-15T12:10:13.614Z,34.10
2019-02-15T12:12:39.558Z,34.10
2019-02-15T12:15:05.557Z,34.00
2019-02-15T12:17:31.524Z,33.90
2019-02-15T12:19:57.467Z,33.80
2019-02-15T12:22:23.399Z,33.80
2019-02-15T12:24:49.340Z,33.90
2019-02-15T12:27:15.286Z,33.80
2019-02-15T12:29:41.248Z,33.80
2019-02-15T12:32:07.194Z,33.80
2019-02-15T12:34:33.132Z,33.80
2019-02-15T12:36:59.086Z,33.80
2019-02-15T12:39:25.040Z,33.60
2019-02-15T12:41:51.074Z,33.70
2019-02-15T12:44:17.131Z,33.70
2019-02-15T12:46:43.094Z,33.60
2019-02-15T12:49:09.158Z,33.60
2019-02-15T12:51:35.212Z,33.60
2019-02-15T12:54:01.184Z,33.60
2019-02-15T12:56:27.140Z,33.60
2019-02-15T12:58:53.168Z,33.80
2019-02-15T13:01:19.450Z,33.80
2019-02-15T13:03:45.472Z,33.80
2019-02-15T13:06:11.432Z,33.80
2019-02-15T13:08:37.412Z,33.80
2019-02-15T13:11:03.381Z,33.80
2019-02-15T13:13:29.419Z,33.80
2019-02-15T13:15:55.462Z,33.80
2019-02-15T13:18:21.515Z,33.90
2019-02-15T13:20:47.579Z,33.90
2019-02-15T13:23:13.637Z,33.90
2019-02-15T13:25:39.698Z,34.00
2019-02-15T13:28:05.715Z,34.00
2019-02-15T13:30:31.765Z,34.20
2019-02-15T13:32:57.764Z,34.20
2019-02-15T13:35:23.857Z,34.20
2019-02-15T13:37:49.898Z,34.20
2019-02-15T13:40:15.860Z,34.20
2019-02-15T13:42:41.908Z,34.20
2019-02-15T13:45:07.854Z,34.20
2019-02-15T13:47:34.977Z,34.10
2019-02-15T13:50:01.250Z,34.10
2019-02-15T13:52:27.215Z,34.20
2019-02-15T13:54:53.283Z,34.20
2019-02-15T13:57:19.231Z,34.10
2019-02-15T13:59:45.182Z,34.10
2019-02-15T14:02:11.208Z,34.20
2019-02-15T14:04:37.305Z,34.10
2019-02-15T14:07:03.363Z,34.10
2019-02-15T14:09:29.330Z,34.20
2019-02-15T14:11:55.306Z,34.20
2019-02-15T14:14:21.377Z,34.20
2019-02-15T14:16:47.356Z,34.10
2019-02-15T14:19:13.413Z,34.10
2019-02-15T14:21:44.489Z,34.10
2019-02-15T14:24:07.329Z,34.10
2019-02-15T14:26:33.359Z,34.10
2019-02-15T14:28:59.307Z,34.10
2019-02-15T14:31:25.250Z,34.10
2019-02-15T14:33:51.194Z,34.10
2019-02-15T14:36:17.153Z,34.30
2019-02-15T14:38:43.104Z,34.10
2019-02-15T14:41:09.068Z,34.20
2019-02-15T14:43:35.122Z,34.20
2019-02-15T14:46:01.181Z,34.10
2019-02-15T14:48:27.131Z,34.10
2019-02-15T14:50:53.094Z,34.10
2019-02-15T14:53:19.157Z,34.10
2019-02-15T14:55:45.193Z,34.10
2019-02-15T14:58:11.177Z,34.30
2019-02-15T15:00:37.120Z,34.20
2019-02-15T15:03:03.065Z,34.40
2019-02-15T15:05:29.011Z,34.50
2019-02-15T15:07:55.440Z,34.40
2019-02-15T15:10:21.383Z,34.30
2019-02-15T15:12:47.327Z,34.40
2019-02-15T15:15:13.298Z,34.50
2019-02-15T15:17:39.309Z,34.40
2019-02-15T15:20:05.317Z,34.30
2019-02-15T15:22:31.410Z,34.20
2019-02-15T15:24:57.465Z,34.20
2019-02-15T15:27:23.435Z,34.20
2019-02-15T15:29:50.461Z,34.20
2019-02-15T15:32:16.760Z,34.20
2019-02-15T15:34:42.816Z,34.20
2019-02-15T15:37:16.188Z,34.30
2019-02-15T15:39:36.613Z,34.30
2019-02-15T15:42:02.579Z,34.30
2019-02-15T15:44:28.529Z,34.20
2019-02-15T15:46:54.483Z,34.20
2019-02-15T15:49:20.432Z,34.30
2019-02-15T15:51:46.363Z,34.20
2019-02-15T15:54:12.336Z,34.20
2019-02-15T15:56:38.366Z,34.30
2019-02-15T15:59:04.326Z,34.20
2019-02-15T16:01:30.287Z,34.20
2019-02-15T16:03:56.222Z,34.20
2019-02-15T16:06:24.324Z,34.20
2019-02-15T16:08:50.023Z,34.20
2019-02-15T16:11:15.999Z,34.30
2019-02-15T16:13:41.929Z,33.70
2019-02-15T16:16:07.895Z,34.00
2019-02-15T16:18:35.089Z,34.30
2019-02-15T16:21:01.311Z,34.20
2019-02-15T16:23:27.246Z,34.30
2019-02-15T16:25:53.217Z,34.20
2019-02-15T16:28:19.187Z,34.30
2019-02-15T16:30:45.240Z,34.20
2019-02-15T16:33:11.220Z,34.40
2019-02-15T16:35:37.255Z,34.50
2019-02-15T16:38:03.238Z,34.60
2019-02-15T16:40:29.280Z,34.70
2019-02-15T16:42:55.218Z,34.70
2019-02-15T16:45:21.163Z,35.30
2019-02-15T16:47:47.122Z,34.70
2019-02-15T16:50:13.071Z,34.70
2019-02-15T16:52:39.020Z,34.80
2019-02-15T16:55:12.360Z,35.00
2019-02-15T16:57:34.716Z,34.90
2019-02-15T17:00:00.715Z,34.70
2019-02-15T17:02:26.850Z,34.70
2019-02-15T17:04:52.968Z,34.60
2019-02-15T17:07:19.123Z,34.50
2019-02-15T17:09:45.109Z,34.50
2019-02-15T17:12:11.129Z,34.60
2019-02-15T17:14:37.107Z,34.70
2019-02-15T17:17:03.053Z,34.60
2019-02-15T17:19:29.012Z,34.60
2019-02-15T17:21:55.004Z,34.60
2019-02-15T17:24:20.968Z,34.60
2019-02-15T17:26:46.950Z,35.30
2019-02-15T17:29:12.981Z,35.10
2019-02-15T17:31:38.977Z,34.60
2019-02-15T17:34:04.929Z,34.60
2019-02-15T17:36:31.002Z,34.60
2019-02-15T17:38:57.047Z,34.60
2019-02-15T17:41:23.008Z,34.60
2019-02-15T17:43:48.966Z,34.60
2019-02-15T17:46:14.906Z,34.50
2019-02-15T17:48:40.861Z,34.50
2019-02-15T17:51:06.818Z,34.50
2019-02-15T17:53:32.762Z,34.40
2019-02-15T17:55:58.736Z,34.40
2019-02-15T17:58:25.134Z,34.50
2019-02-15T18:00:51.069Z,34.50
2019-02-15T18:03:17.014Z,34.60
2019-02-15T18:05:43.009Z,34.60
2019-02-15T18:08:09.036Z,34.70
2019-02-15T18:10:34.984Z,34.70
2019-02-15T18:13:00.957Z,34.60
2019-02-15T18:15:27.027Z,34.60
2019-02-15T18:17:52.962Z,34.60
2019-02-15T18:20:18.929Z,34.60
2019-02-15T18:22:44.851Z,34.50
2019-02-15T18:25:10.841Z,34.40
2019-02-15T18:27:36.896Z,34.60
2019-02-15T18:30:02.881Z,34.70
2019-02-15T18:32:28.930Z,34.80
2019-02-15T18:34:54.993Z,34.60
2019-02-15T18:37:20.952Z,34.70
2019-02-15T18:39:46.916Z,34.70
2019-02-15T18:42:12.874Z,34.60
2019-02-15T18:44:38.812Z,34.60
2019-02-15T18:47:04.875Z,34.50
2019-02-15T18:49:30.819Z,34.40
2019-02-15T18:51:56.788Z,34.40
2019-02-15T18:54:22.726Z,34.30
2019-02-15T18:56:48.734Z,34.40
2019-02-15T18:59:14.791Z,34.40
2019-02-15T19:01:40.753Z,34.40
2019-02-15T19:04:06.804Z,34.40
2019-02-15T19:06:32.919Z,34.40
2019-02-15T19:08:58.991Z,34.40
2019-02-15T19:11:24.952Z,34.40
2019-02-15T19:13:51.013Z,34.40
2019-02-15T19:16:16.967Z,34.30
2019-02-15T19:18:42.928Z,34.30
2019-02-15T19:21:08.956Z,34.40
2019-02-15T19:23:35.068Z,34.60
2019-02-15T19:26:01.199Z,34.60
2019-02-15T19:28:29.359Z,35.30
2019-02-15T19:30:55.423Z,34.70
2019-02-15T19:33:21.682Z,34.80
2019-02-15T19:35:48.422Z,34.80
2019-02-15T19:38:14.478Z,34.80
2019-02-15T19:40:40.834Z,35.00
2019-02-15T19:43:06.923Z,35.00
2019-02-15T19:45:32.958Z,35.00
2019-02-15T19:47:59.192Z,35.10
2019-02-15T19:50:25.324Z,35.20
2019-02-15T19:52:51.421Z,35.40
2019-02-15T19:55:17.479Z,35.50
2019-02-15T19:57:43.464Z,35.70
2019-02-15T20:00:09.523Z,35.90
2019-02-15T20:02:35.510Z,36.10
2019-02-15T20:05:01.565Z,36.10
2019-02-15T20:07:27.561Z,36.10
2019-02-15T20:09:53.651Z,36.10
2019-02-15T20:12:19.695Z,36.10
2019-02-15T20:14:45.735Z,36.10
2019-02-15T20:17:11.797Z,36.10
2019-02-15T20:19:37.839Z,36.10
2019-02-15T20:22:03.812Z,36.20
2019-02-15T20:24:29.774Z,36.50
2019-02-15T20:26:55.831Z,36.90
2019-02-15T20:29:21.780Z,36.90
2019-02-15T20:31:47.759Z,37.10
2019-02-15T20:34:13.807Z,37.10
2019-02-15T20:36:39.756Z,37.00
2019-02-15T20:39:05.743Z,37.00
2019-02-15T20:41:31.798Z,36.90
2019-02-15T20:43:57.874Z,36.90
2019-02-15T20:46:23.937Z,36.90
2019-02-15T20:49:03.800Z,36.80
2019-02-15T20:51:17.746Z,36.70
2019-02-15T20:53:43.718Z,36.60
2019-02-15T20:56:09.672Z,36.60
2019-02-15T20:58:35.945Z,37.10
2019-02-15T21:01:01.973Z,36.50
2019-02-15T21:03:27.936Z,36.60
2019-02-15T21:05:53.929Z,36.50
2019-02-15T21:08:19.984Z,36.50
2019-02-15T21:10:54.459Z,36.40
2019-02-15T21:13:20.157Z,36.40
2019-02-15T21:15:41.666Z,36.40
2019-02-15T21:18:07.619Z,36.40
2019-02-15T21:20:33.580Z,36.50
2019-02-15T21:22:59.549Z,36.50
2019-02-15T21:25:25.478Z,36.60
2019-02-15T21:27:51.436Z,36.60
2019-02-15T21:30:17.397Z,36.50
2019-02-15T21:32:43.356Z,36.50
2019-02-15T21:35:09.307Z,36.50
2019-02-15T21:37:35.308Z,36.50
2019-02-15T21:40:01.278Z,36.40
2019-02-15T21:42:27.352Z,36.30
2019-02-15T21:44:53.436Z,36.30
2019-02-15T21:47:19.389Z,36.30
2019-02-15T21:49:45.345Z,36.30
2019-02-15T21:52:11.314Z,36.40
2019-02-15T21:54:37.357Z,36.40
2019-02-15T21:57:03.322Z,36.20
2019-02-15T21:59:29.383Z,36.10
2019-02-15T22:01:55.358Z,35.90
2019-02-15T22:04:21.339Z,35.80
2019-02-15T22:06:47.280Z,35.70
2019-02-15T22:09:13.255Z,35.60
2019-02-15T22:11:39.316Z,35.40
2019-02-15T22:14:05.285Z,35.50
2019-02-15T22:16:31.259Z,35.30
2019-02-15T22:18:57.313Z,35.20
2019-02-15T22:21:23.237Z,35.10
2019-02-15T22:23:49.201Z,35.10
2019-02-15T22:26:15.246Z,35.00
2019-02-15T22:28:41.198Z,35.00
2019-02-15T22:31:07.157Z,34.90
2019-02-15T22:33:33.204Z,34.90
2019-02-15T22:35:59.148Z,34.90
2019-02-15T22:38:25.482Z,34.90
2019-02-15T22:40:51.449Z,34.90
2019-02-15T22:43:17.407Z,34.80
2019-02-15T22:45:43.368Z,34.80
2019-02-15T22:48:10.102Z,34.80
2019-02-15T22:50:36.572Z,34.80
2019-02-15T22:53:02.660Z,34.70
2019-02-15T22:55:28.627Z,34.70
2019-02-15T22:58:01.843Z,34.60
2019-02-15T23:00:29.701Z,34.60
2019-02-15T23:02:55.664Z,34.60
2019-02-15T23:05:21.601Z,34.50
2019-02-15T23:07:47.571Z,34.60
2019-02-15T23:10:13.513Z,34.50
2019-02-15T23:12:39.501Z,34.50
2019-02-15T23:15:05.543Z,34.60
2019-02-15T23:17:31.562Z,34.60
2019-02-15T23:19:57.536Z,34.60
2019-02-15T23:22:23.487Z,34.70
2019-02-15T23:24:49.432Z,34.70
2019-02-15T23:27:15.411Z,34.80
2019-02-15T23:29:41.371Z,34.70
2019-02-15T23:32:07.440Z,34.70
2019-02-15T23:34:33.373Z,34.70
2019-02-15T23:36:59.337Z,34.70
2019-02-15T23:39:25.290Z,34.70
2019-02-15T23:41:51.225Z,34.80
2019-02-15T23:44:17.173Z,34.90
2019-02-15T23:46:43.122Z,35.00
2019-02-15T23:49:09.067Z,34.90
2019-02-15T23:51:35.020Z,34.90
2019-02-15T23:54:00.971Z,34.90
2019-02-15T23:56:26.911Z,34.90
2019-02-15T23:58:52.898Z,34.90
